Time;durP1;ratioP1;P1;durP2;ratioP2;P2;SDS_P1;SDS_P2;PMS_P1;PMS_P2;Temp;Humidity;BMP_temperature;BMP_pressure;BME280_temperature;BME280_humidity;BME280_pressure;Samples;Min_cycle;Max_cycle;Signal;HPM_P1;HPM_P2
2023/07/10 04:16:48;;;;;;;;;18.00;16.33;;;;;;;;6492866;31;9751;-56
2023/07/10 04:22:52;;;;;;;;;22.00;21.67;;;;;;;;6492633;39;9648;-54
2023/07/10 04:28:58;;;;;;;;;24.00;24.00;;;;;;;;6493916;39;8864;-55
2023/07/10 04:35:03;;;;;;;;;25.00;24.00;;;;;;;;6491247;31;8914;-56
2023/07/10 04:41:15;;;;;;;;;20.33;20.00;;;;;;;;6492688;39;8877;-55
2023/07/10 04:47:21;;;;;;;;;21.67;20.67;;;;;;;;6491173;46;8974;-56
2023/07/10 04:53:24;;;;;;;;;23.33;21.67;;;;;;;;6491803;46;8922;-55
2023/07/10 04:59:26;;;;;;;;;20.25;19.00;;;;;;;;6492394;39;8824;-55
2023/07/10 05:05:28;;;;;;;;;23.00;21.50;;;;;;;;6490572;46;9017;-54
2023/07/10 05:11:31;;;;;;;;;20.50;20.50;;;;;;;;6490881;46;9041;-55
2023/07/10 05:17:33;;;;;;;;;19.75;19.50;;;;;;;;6492251;39;9527;-57
2023/07/10 05:23:36;;;;;;;;;21.25;21.25;;;;;;;;6491900;39;8896;-56
2023/07/10 05:29:40;;;;;;;;;18.00;15.25;;;;;;;;6490693;46;8894;-55
2023/07/10 05:35:55;;;;;;;;;17.75;17.00;;;;;;;;6310924;31;10000786;-53
2023/07/10 05:41:58;;;;;;;;;18.00;16.50;;;;;;;;6491658;46;8964;-57
2023/07/10 05:48:04;;;;;;;;;17.50;16.00;;;;;;;;6491462;46;8950;-57
2023/07/10 05:54:06;;;;;;;;;14.75;14.75;;;;;;;;6490569;39;8875;-56
2023/07/10 06:00:09;;;;;;;;;17.25;17.25;;;;;;;;6487766;46;8942;-56
2023/07/10 06:06:12;;;;;;;;;15.00;15.00;;;;;;;;6486754;46;8985;-57
2023/07/10 06:12:15;;;;;;;;;17.00;15.50;;;;;;;;6488466;31;9829;-56
2023/07/10 06:18:19;;;;;;;;;16.25;16.25;;;;;;;;6487503;46;8919;-55
2023/07/10 06:24:23;;;;;;;;;16.00;15.50;;;;;;;;6488384;39;9799;-55
2023/07/10 06:30:26;;;;;;;;;12.00;12.00;;;;;;;;6488075;31;9009;-56
2023/07/10 06:36:31;;;;;;;;;14.75;13.75;;;;;;;;6487161;39;8906;-56
2023/07/10 06:42:33;;;;;;;;;13.50;13.50;;;;;;;;6487232;39;8891;-55
2023/07/10 06:48:36;;;;;;;;;15.50;14.50;;;;;;;;6488340;39;8895;-55
2023/07/10 06:54:39;;;;;;;;;17.75;17.75;;;;;;;;6486193;47;8942;-58
2023/07/10 07:00:43;;;;;;;;;13.75;13.75;;;;;;;;6487400;47;8984;-56
2023/07/10 07:06:45;;;;;;;;;11.25;11.25;;;;;;;;6487160;47;8914;-57
2023/07/10 07:12:48;;;;;;;;;14.00;14.00;;;;;;;;6485832;39;8916;-55
2023/07/10 07:18:51;;;;;;;;;11.50;11.50;;;;;;;;6486738;39;8957;-55
2023/07/10 07:25:07;;;;;;;;;15.00;15.00;;;;;;;;6484862;47;8924;-57
2023/07/10 07:31:10;;;;;;;;;15.25;13.75;;;;;;;;6488035;47;8914;-56
2023/07/10 07:37:14;;;;;;;;;15.25;15.25;;;;;;;;6487322;31;8973;-56
2023/07/10 07:43:17;;;;;;;;;13.75;13.75;;;;;;;;6486959;46;9061;-56
2023/07/10 07:49:23;;;;;;;;;13.75;13.75;;;;;;;;6488575;39;8904;-54
2023/07/10 07:55:26;;;;;;;;;13.00;12.00;;;;;;;;6488789;39;9684;-57
2023/07/10 08:01:28;;;;;;;;;12.75;12.75;;;;;;;;6488320;46;9009;-56
2023/07/10 08:07:30;;;;;;;;;11.25;11.25;;;;;;;;6488285;39;9756;-58
2023/07/10 08:13:33;;;;;;;;;16.00;16.00;;;;;;;;6488495;31;8973;-55
2023/07/10 08:19:38;;;;;;;;;14.00;13.50;;;;;;;;6486294;31;8996;-56
2023/07/10 08:25:43;;;;;;;;;14.75;14.75;;;;;;;;6486119;31;8927;-54
2023/07/10 08:31:45;;;;;;;;;16.00;15.50;;;;;;;;6486804;39;8929;-55
2023/07/10 08:37:50;;;;;;;;;16.75;15.75;;;;;;;;6487025;39;9041;-52
2023/07/10 08:43:52;;;;;;;;;17.00;17.00;;;;;;;;6487314;46;9030;-56
2023/07/10 08:50:10;;;;;;;;;17.75;17.75;;;;;;;;6485453;39;9436;-56
2023/07/10 08:56:27;;;;;;;;;15.00;15.00;;;;;;;;6485969;31;9029;-57
2023/07/10 09:02:50;;;;;;;;;13.00;12.25;;;;;;;;6484363;39;8963;-56
2023/07/10 09:08:54;;;;;;;;;13.75;13.75;;;;;;;;6487282;39;8984;-56
2023/07/10 09:15:12;;;;;;;;;15.75;15.75;;;;;;;;6486830;39;8938;-58
2023/07/10 09:21:22;;;;;;;;;14.50;13.75;;;;;;;;6485606;39;9343;-57
2023/07/10 09:27:25;;;;;;;;;15.50;13.50;;;;;;;;6486749;39;8925;-56
2023/07/10 09:33:58;;;;;;;;;13.25;13.25;;;;;;;;6485459;46;8931;-57
2023/07/10 09:40:35;;;;;;;;;15.50;13.75;;;;;;;;6488925;39;9723;-58
2023/07/10 09:46:38;;;;;;;;;16.25;14.75;;;;;;;;6487667;46;8915;-55
2023/07/10 09:52:42;;;;;;;;;18.00;17.50;;;;;;;;6488708;39;8966;-57
2023/07/10 09:58:51;;;;;;;;;14.00;13.25;;;;;;;;6489627;39;8934;-58
2023/07/10 10:05:13;;;;;;;;;12.00;10.25;;;;;;;;6488588;31;9003;-56
2023/07/10 10:11:16;;;;;;;;;16.25;14.50;;;;;;;;6487906;31;9077;-56
2023/07/10 10:17:23;;;;;;;;;16.25;14.25;;;;;;;;6487524;46;8958;-56
2023/07/10 10:23:36;;;;;;;;;12.00;10.75;;;;;;;;6486468;39;8986;-57
2023/07/10 10:29:57;;;;;;;;;14.50;13.75;;;;;;;;6486312;31;9030;-56
2023/07/10 10:36:27;;;;;;;;;13.50;13.50;;;;;;;;6485364;47;9029;-58
2023/07/10 10:42:43;;;;;;;;;15.25;14.50;;;;;;;;6487379;31;8945;-56
2023/07/10 10:48:51;;;;;;;;;18.50;18.50;;;;;;;;6487697;39;9682;-58
2023/07/10 10:55:00;;;;;;;;;21.75;19.50;;;;;;;;6488106;47;8910;-58
2023/07/10 11:01:21;;;;;;;;;13.75;12.75;;;;;;;;6488026;47;9069;-57
2023/07/10 11:07:26;;;;;;;;;13.50;13.50;;;;;;;;6487295;39;8990;-56
2023/07/10 11:13:35;;;;;;;;;14.50;13.75;;;;;;;;6489310;39;9139;-58
2023/07/10 11:19:37;;;;;;;;;14.50;14.50;;;;;;;;6488110;39;8931;-56
2023/07/10 11:25:44;;;;;;;;;13.00;13.00;;;;;;;;6488822;39;8947;-57
2023/07/10 11:31:55;;;;;;;;;18.00;17.00;;;;;;;;6490419;39;8924;-55
2023/07/10 11:38:04;;;;;;;;;19.00;16.75;;;;;;;;6490155;46;8915;-57
2023/07/10 11:44:18;;;;;;;;;13.50;13.50;;;;;;;;6488297;39;8988;-56
2023/07/10 11:50:27;;;;;;;;;17.75;17.25;;;;;;;;6490837;39;8908;-56
2023/07/10 11:56:30;;;;;;;;;19.50;18.25;;;;;;;;6488621;39;8934;-57
2023/07/10 12:02:51;;;;;;;;;15.50;15.50;;;;;;;;6490157;46;8943;-57
2023/07/10 12:08:59;;;;;;;;;15.33;15.33;;;;;;;;6489559;46;8920;-59
2023/07/10 12:15:03;;;;;;;;;12.50;12.50;;;;;;;;6489297;39;9577;-57
2023/07/10 12:21:12;;;;;;;;;16.75;16.75;;;;;;;;6488264;39;8931;-58
2023/07/10 12:27:14;;;;;;;;;16.75;16.75;;;;;;;;6487911;39;9645;-58
2023/07/10 12:33:50;;;;;;;;;15.75;15.75;;;;;;;;6487820;31;8920;-58
2023/07/10 12:39:55;;;;;;;;;17.25;16.75;;;;;;;;6489005;31;8839;-58
2023/07/10 12:46:12;;;;;;;;;16.00;16.00;;;;;;;;6488133;46;8927;-60
2023/07/10 12:52:15;;;;;;;;;16.25;16.25;;;;;;;;6487870;31;8931;-58
2023/07/10 12:58:17;;;;;;;;;14.50;14.50;;;;;;;;6486751;39;8985;-59
2023/07/10 13:04:27;;;;;;;;;18.25;18.25;;;;;;;;6486997;46;8936;-59
2023/07/10 13:10:41;;;;;;;;;15.75;15.75;;;;;;;;6486308;39;8968;-58
2023/07/10 13:16:44;;;;;;;;;14.75;13.25;;;;;;;;6487546;39;8958;-57
2023/07/10 13:22:46;;;;;;;;;14.50;14.50;;;;;;;;6487520;39;8924;-56
2023/07/10 13:28:52;;;;;;;;;16.25;15.50;;;;;;;;6486107;39;9109;-57
2023/07/10 13:34:55;;;;;;;;;16.25;16.25;;;;;;;;6486856;39;9021;-58
2023/07/10 13:40:58;;;;;;;;;12.50;12.50;;;;;;;;6483933;39;9004;-55
2023/07/10 13:47:02;;;;;;;;;13.75;12.75;;;;;;;;6487268;39;8951;-56
2023/07/10 13:53:05;;;;;;;;;13.00;13.00;;;;;;;;6486259;39;8933;-56
2023/07/10 13:59:17;;;;;;;;;14.75;14.75;;;;;;;;6487865;39;8947;-57
2023/07/10 14:05:20;;;;;;;;;15.50;14.50;;;;;;;;6488476;31;8927;-56
2023/07/10 14:11:23;;;;;;;;;13.75;13.75;;;;;;;;6488076;39;9028;-57
2023/07/10 14:17:30;;;;;;;;;11.25;11.25;;;;;;;;6487493;46;8899;-56
2023/07/10 14:23:32;;;;;;;;;14.25;14.00;;;;;;;;6488241;31;8898;-57
2023/07/10 14:29:36;;;;;;;;;13.25;13.25;;;;;;;;6487552;39;8916;-55
2023/07/10 14:35:40;;;;;;;;;14.25;14.25;;;;;;;;6488728;39;9537;-55
2023/07/10 14:41:42;;;;;;;;;14.25;14.25;;;;;;;;6487842;39;8919;-55
2023/07/10 14:47:45;;;;;;;;;14.75;14.25;;;;;;;;6488329;39;8922;-56
2023/07/10 14:53:48;;;;;;;;;10.00;9.75;;;;;;;;6488008;31;8907;-56
2023/07/10 14:59:50;;;;;;;;;14.75;14.75;;;;;;;;6488585;39;9050;-56
2023/07/10 15:05:55;;;;;;;;;18.25;17.50;;;;;;;;6489114;39;9620;-56
2023/07/10 15:11:57;;;;;;;;;16.75;16.75;;;;;;;;6488264;39;8942;-56
2023/07/10 15:18:00;;;;;;;;;18.25;16.00;;;;;;;;6488200;39;8906;-55
2023/07/10 15:24:02;;;;;;;;;17.50;17.50;;;;;;;;6488158;39;8910;-56
2023/07/10 15:30:05;;;;;;;;;17.00;16.75;;;;;;;;6487694;39;8900;-55
2023/07/10 15:36:17;;;;;;;;;17.00;17.00;;;;;;;;6486294;39;9026;-58
2023/07/10 15:42:20;;;;;;;;;21.25;18.75;;;;;;;;6486846;39;9616;-53
2023/07/10 15:48:23;;;;;;;;;18.00;17.25;;;;;;;;6488261;39;8951;-57
2023/07/10 15:54:26;;;;;;;;;19.50;18.75;;;;;;;;6486764;39;8906;-57
2023/07/10 16:00:38;;;;;;;;;17.50;17.25;;;;;;;;6488671;31;8926;-56
2023/07/10 16:06:40;;;;;;;;;15.75;15.75;;;;;;;;6489461;46;8993;-55
2023/07/10 16:12:47;;;;;;;;;15.50;15.50;;;;;;;;6489582;31;9776;-56
2023/07/10 16:18:50;;;;;;;;;17.25;16.25;;;;;;;;6489514;39;8911;-54
2023/07/10 16:24:53;;;;;;;;;22.25;19.50;;;;;;;;6489983;31;8956;-55
2023/07/10 16:30:55;;;;;;;;;22.25;21.25;;;;;;;;6489674;39;8935;-54
2023/07/10 16:36:59;;;;;;;;;20.00;20.00;;;;;;;;6489992;39;8965;-56
2023/07/10 16:43:11;;;;;;;;;19.00;19.00;;;;;;;;6487948;39;8919;-54
2023/07/10 16:49:13;;;;;;;;;18.00;17.50;;;;;;;;6489556;46;8871;-53
2023/07/10 16:55:24;;;;;;;;;20.75;19.75;;;;;;;;6489230;46;8899;-55
2023/07/10 17:01:30;;;;;;;;;21.25;21.00;;;;;;;;6490000;39;8917;-54
2023/07/10 17:07:32;;;;;;;;;20.25;20.25;;;;;;;;6489395;39;9531;-54
2023/07/10 17:13:35;;;;;;;;;19.00;19.00;;;;;;;;6489559;46;8918;-55
2023/07/10 17:19:40;;;;;;;;;19.50;18.50;;;;;;;;6489077;46;8836;-54
2023/07/10 17:25:43;;;;;;;;;17.75;17.75;;;;;;;;6489261;39;8899;-55
2023/07/10 17:31:46;;;;;;;;;22.25;19.75;;;;;;;;6487488;39;8922;-56
2023/07/10 17:37:52;;;;;;;;;26.50;25.25;;;;;;;;6488569;31;9250;-55
2023/07/10 17:43:57;;;;;;;;;18.25;18.25;;;;;;;;6489219;39;8887;-54
2023/07/10 17:50:00;;;;;;;;;25.00;23.75;;;;;;;;6489162;31;8906;-55
2023/07/10 17:56:03;;;;;;;;;25.25;24.00;;;;;;;;6489065;46;8895;-53
2023/07/10 18:02:15;;;;;;;;;19.00;19.00;;;;;;;;6489686;39;8831;-54
2023/07/10 18:08:27;;;;;;;;;22.75;22.75;;;;;;;;6488685;39;8938;-55
2023/07/10 18:14:30;;;;;;;;;19.75;18.75;;;;;;;;6489897;31;8907;-53
2023/07/10 18:20:32;;;;;;;;;22.00;21.50;;;;;;;;6487742;31;8955;-54
2023/07/10 18:26:37;;;;;;;;;20.00;20.00;;;;;;;;6487307;31;8891;-56
2023/07/10 18:32:40;;;;;;;;;19.75;19.25;;;;;;;;6488717;46;8974;-55
2023/07/10 18:38:43;;;;;;;;;19.00;19.00;;;;;;;;6488951;31;8866;-53
2023/07/10 18:44:46;;;;;;;;;24.25;22.00;;;;;;;;6489030;39;8876;-52
2023/07/10 18:50:50;;;;;;;;;23.50;23.50;;;;;;;;6487842;39;8917;-56
2023/07/10 18:56:52;;;;;;;;;23.25;22.00;;;;;;;;6488282;39;8915;-53
2023/07/10 19:02:55;;;;;;;;;22.50;22.50;;;;;;;;6488491;31;8889;-55
2023/07/10 19:08:58;;;;;;;;;22.00;20.25;;;;;;;;6487991;47;8868;-53
2023/07/10 19:15:00;;;;;;;;;23.75;23.25;;;;;;;;6488034;47;8895;-55
2023/07/10 19:21:03;;;;;;;;;22.50;22.25;;;;;;;;6488269;39;8958;-55
2023/07/10 19:27:06;;;;;;;;;23.00;23.00;;;;;;;;6488287;39;8895;-57
2023/07/10 19:33:17;;;;;;;;;18.67;18.67;;;;;;;;6489086;31;8899;-53
2023/07/10 19:39:24;;;;;;;;;20.50;17.75;;;;;;;;6489016;31;8887;-54
2023/07/10 19:45:27;;;;;;;;;17.75;17.50;;;;;;;;6490928;39;8958;-55
2023/07/10 19:51:31;;;;;;;;;17.75;16.75;;;;;;;;6490303;39;8847;-55
2023/07/10 19:57:33;;;;;;;;;19.50;19.50;;;;;;;;6489573;46;8892;-51
2023/07/10 20:03:36;;;;;;;;;23.75;21.50;;;;;;;;6490735;39;9547;-53
2023/07/10 20:09:39;;;;;;;;;20.75;19.50;;;;;;;;6488500;39;8904;-54
2023/07/10 20:15:42;;;;;;;;;21.60;20.40;;;;;;;;5767643;36;10001898;-55
2023/07/10 20:21:46;;;;;;;;;18.75;18.75;;;;;;;;6489162;46;8877;-53
2023/07/10 20:27:48;;;;;;;;;21.25;20.00;;;;;;;;6489615;46;8921;-54
2023/07/10 20:33:50;;;;;;;;;21.00;21.00;;;;;;;;6489293;39;9292;-52
2023/07/10 20:39:53;;;;;;;;;23.25;21.50;;;;;;;;6488567;39;8859;-53
2023/07/10 20:46:00;;;;;;;;;20.00;19.75;;;;;;;;6489729;31;8936;-53
2023/07/10 20:52:03;;;;;;;;;18.00;17.00;;;;;;;;6489218;31;8844;-54
2023/07/10 20:58:14;;;;;;;;;23.00;21.25;;;;;;;;6488925;39;9032;-53
2023/07/10 21:04:18;;;;;;;;;22.00;18.25;;;;;;;;6487869;39;9010;-54
2023/07/10 21:10:20;;;;;;;;;22.50;19.75;;;;;;;;6489350;39;9536;-54
2023/07/10 21:16:31;;;;;;;;;20.25;19.00;;;;;;;;6490438;39;9018;-54
2023/07/10 21:22:34;;;;;;;;;21.25;20.00;;;;;;;;6490027;31;8960;-55
2023/07/10 21:28:42;;;;;;;;;23.50;22.00;;;;;;;;6488018;46;9007;-54
2023/07/10 21:34:44;;;;;;;;;21.00;21.00;;;;;;;;6488316;39;8893;-54
2023/07/10 21:40:48;;;;;;;;;20.75;19.50;;;;;;;;6488810;31;8863;-54
2023/07/10 21:46:51;;;;;;;;;22.00;21.50;;;;;;;;6488701;46;8954;-54
2023/07/10 21:52:53;;;;;;;;;18.00;17.75;;;;;;;;6487750;46;8915;-52
2023/07/10 21:58:59;;;;;;;;;19.00;19.00;;;;;;;;6488116;39;8931;-49
2023/07/10 22:05:12;;;;;;;;;21.50;19.25;;;;;;;;6488942;39;8978;-54
2023/07/10 22:11:27;;;;;;;;;21.00;20.33;;;;;;;;6488784;46;8948;-54
2023/07/10 22:17:29;;;;;;;;;22.33;21.00;;;;;;;;6488058;46;8903;-54
2023/07/10 22:23:32;;;;;;;;;20.00;18.00;;;;;;;;6488762;39;8951;-53
2023/07/10 22:29:35;;;;;;;;;19.50;18.00;;;;;;;;6488325;39;8867;-53
2023/07/10 22:35:37;;;;;;;;;19.75;19.75;;;;;;;;6488217;39;9509;-54
2023/07/10 22:41:43;;;;;;;;;18.33;18.33;;;;;;;;6488940;39;8863;-53
2023/07/10 22:47:45;;;;;;;;;19.33;19.33;;;;;;;;6407233;36;5001453;-53
2023/07/10 22:53:47;;;;;;;;;19.25;18.75;;;;;;;;6486680;47;8897;-52
2023/07/10 22:59:50;;;;;;;;;20.00;19.33;;;;;;;;6489478;39;8853;-52
2023/07/10 23:05:52;;;;;;;;;21.67;20.33;;;;;;;;6488553;47;8904;-54
2023/07/10 23:11:54;;;;;;;;;18.00;18.00;;;;;;;;6489796;39;8920;-52
2023/07/10 23:17:56;;;;;;;;;23.00;22.00;;;;;;;;6490275;39;8853;-53
2023/07/10 23:23:59;;;;;;;;;18.67;18.67;;;;;;;;6489647;46;9036;-54
2023/07/10 23:30:02;;;;;;;;;20.67;20.67;;;;;;;;6490308;46;8909;-53
2023/07/10 23:36:06;;;;;;;;;20.00;19.33;;;;;;;;6490059;46;8989;-54
2023/07/10 23:42:10;;;;;;;;;18.00;18.00;;;;;;;;6490419;39;8861;-53
2023/07/10 23:48:13;;;;;;;;;24.00;21.00;;;;;;;;6489065;39;8901;-53
2023/07/10 23:54:15;;;;;;;;;16.67;16.67;;;;;;;;6490074;39;9509;-54
